Terminal Aerodrome Forecast
Issued by NWS

Home | Current Version | Previous Version | Text Only | Print | Product List | Glossary On
Versions: 1 2 3 4 5 6 7 8 9 10 11 12 13
000
FTUS41 KBGM 170534
TAFELM
TAF
KELM 170534Z 1706/1806 VRB03KT 3SM -SN OVC050
      TEMPO 1706/1709 1 1/2SM -SN OVC020
     FM171000 28008KT P6SM OVC035
     FM171500 29011KT P6SM BKN050
     FM180300 24008KT P6SM FEW100=

USA.gov is the U.S. government's official web portal to all federal, state and local government web resources and services.